Time;durP1;ratioP1;P1;durP2;ratioP2;P2;SDS_P1;SDS_P2;PMS_P1;PMS_P2;Temp;Humidity;BMP_temperature;BMP_pressure;BME280_temperature;BME280_humidity;BME280_pressure;Samples;Min_cycle;Max_cycle;Signal;HPM_P1;HPM_P2
2022/02/24 00:02:07;;;;;;;22.13;10.67;;;;;;;4.32;65.61;101047.34;122689;1105;104255;-83
2022/02/24 00:04:38;;;;;;;22.13;10.33;;;;;;;4.30;66.24;101048.91;122708;1105;104316;-82
2022/02/24 00:07:10;;;;;;;21.93;10.13;;;;;;;4.27;66.30;101051.30;122674;1105;104354;-84
2022/02/24 00:09:41;;;;;;;23.37;10.57;;;;;;;4.23;66.48;101051.89;122688;1105;104288;-83
2022/02/24 00:12:13;;;;;;;24.20;10.90;;;;;;;4.19;66.29;101047.27;122677;1105;104405;-83
2022/02/24 00:14:45;;;;;;;21.90;10.10;;;;;;;4.14;66.30;101059.94;122700;1105;104332;-83
2022/02/24 00:17:16;;;;;;;23.23;10.80;;;;;;;4.08;67.48;101057.83;122699;1103;104287;-83
2022/02/24 00:19:47;;;;;;;22.87;10.53;;;;;;;4.05;66.03;101060.20;122754;1105;104258;-83
2022/02/24 00:22:19;;;;;;;23.90;10.90;;;;;;;4.02;67.01;101059.98;122772;1105;104283;-83
2022/02/24 00:24:50;;;;;;;23.70;10.60;;;;;;;3.97;66.97;101053.55;122695;1105;104318;-83
2022/02/24 00:27:21;;;;;;;22.43;10.20;;;;;;;3.94;66.46;101067.23;122665;1104;104264;-83
2022/02/24 00:29:53;;;;;;;23.50;9.97;;;;;;;3.92;67.24;101057.52;122758;1105;104360;-83
2022/02/24 00:32:26;;;;;;;;;;;;;;;3.90;67.17;101062.60;122727;1105;104294;-83
2022/02/24 00:34:57;;;;;;;24.23;10.50;;;;;;;3.89;67.27;101076.36;122748;1104;104315;-84
2022/02/24 00:37:29;;;;;;;24.07;10.57;;;;;;;3.86;67.36;101065.77;122731;1103;104342;-83
2022/02/24 00:40:00;;;;;;;25.13;11.67;;;;;;;3.83;67.55;101068.13;122702;1105;104764;-83
2022/02/24 00:42:32;;;;;;;24.20;10.75;;;;;;;3.80;67.88;101060.13;122746;1105;104297;-83
2022/02/24 00:45:04;;;;;;;23.77;11.30;;;;;;;3.76;67.39;101063.31;122657;1105;104268;-82
2022/02/24 00:47:35;;;;;;;23.73;10.87;;;;;;;3.73;67.91;101060.50;122732;1105;104961;-83
2022/02/24 00:50:08;;;;;;;25.70;10.70;;;;;;;3.72;67.75;101056.98;122772;1105;104415;-82
2022/02/24 00:52:39;;;;;;;22.85;10.85;;;;;;;3.70;68.64;101055.09;122659;1105;104370;-83
2022/02/24 00:55:11;;;;;;;26.47;11.33;;;;;;;3.69;68.21;101064.55;122609;1105;104293;-83
2022/02/24 00:57:43;;;;;;;23.97;11.40;;;;;;;3.68;68.79;101070.55;122708;1104;104329;-83
2022/02/24 01:00:18;;;;;;;25.35;11.35;;;;;;;3.67;67.60;101070.44;122712;1105;104648;-83
2022/02/24 01:02:50;;;;;;;22.87;11.30;;;;;;;3.65;68.13;101072.92;122675;1105;104550;-83
2022/02/24 01:05:22;;;;;;;25.30;12.17;;;;;;;3.63;69.05;101070.99;122677;1105;104447;-84
2022/02/24 01:07:53;;;;;;;26.73;11.77;;;;;;;3.60;68.63;101076.89;122693;1105;104425;-84
2022/02/24 01:10:24;;;;;;;24.30;11.53;;;;;;;3.58;68.54;101079.38;122469;1105;104724;-83
2022/02/24 01:12:56;;;;;;;27.00;11.70;;;;;;;3.57;68.89;101082.75;122715;1104;104534;-83
2022/02/24 01:15:27;;;;;;;25.63;11.43;;;;;;;3.58;68.75;101083.64;122707;1105;104450;-84
2022/02/24 01:17:58;;;;;;;24.00;10.83;;;;;;;3.58;68.82;101079.38;122630;1105;104530;-84
2022/02/24 01:20:30;;;;;;;24.47;10.90;;;;;;;3.60;68.94;101079.48;122668;1105;104540;-83
2022/02/24 01:23:01;;;;;;;24.73;11.50;;;;;;;3.60;68.41;101082.97;122678;1105;104428;-82
2022/02/24 01:25:34;;;;;;;23.83;10.70;;;;;;;3.62;69.25;101087.38;122839;1105;104546;-82
2022/02/24 01:28:06;;;;;;;29.27;12.70;;;;;;;3.60;68.53;101088.16;122741;1105;104351;-83
2022/02/24 01:30:37;;;;;;;24.10;11.33;;;;;;;3.60;68.92;101085.56;122607;1105;104574;-83
2022/02/24 01:33:08;;;;;;;25.90;11.43;;;;;;;3.59;69.05;101088.05;122677;1105;104421;-83
2022/02/24 01:35:40;;;;;;;22.20;9.93;;;;;;;3.59;69.42;101090.64;122678;1105;104721;-84
2022/02/24 01:38:11;;;;;;;23.63;11.13;;;;;;;3.57;70.15;101093.12;122688;1105;104361;-82
2022/02/24 01:40:42;;;;;;;26.17;11.60;;;;;;;3.53;68.86;101092.79;122711;1105;104400;-83
2022/02/24 01:43:14;;;;;;;25.70;11.77;;;;;;;3.50;70.03;101098.64;122700;1105;104431;-82
2022/02/24 01:45:45;;;;;;;26.50;12.50;;;;;;;3.48;69.91;101097.64;122749;1105;104291;-83
2022/02/24 01:48:16;;;;;;;25.60;12.07;;;;;;;3.45;69.77;101097.41;122709;1105;104215;-82
2022/02/24 01:50:48;;;;;;;28.10;14.33;;;;;;;3.42;69.90;101098.08;122717;1105;104274;-82
2022/02/24 01:53:19;;;;;;;35.37;20.10;;;;;;;3.39;69.47;101117.71;122773;1105;104402;-83
2022/02/24 01:55:51;;;;;;;37.35;21.40;;;;;;;3.35;69.76;101110.48;122756;1105;109377;-82
2022/02/24 01:58:23;;;;;;;39.00;22.10;;;;;;;3.31;70.24;101108.47;122755;1105;104286;-83
2022/02/24 02:00:54;;;;;;;39.33;23.60;;;;;;;3.29;71.01;101107.42;122761;1105;104288;-84
2022/02/24 02:03:26;;;;;;;40.97;22.97;;;;;;;3.27;69.83;101109.91;122979;1105;104342;-81
2022/02/24 02:05:59;;;;;;;39.60;24.33;;;;;;;3.27;70.27;101111.61;122831;1105;104361;-82
2022/02/24 02:08:30;;;;;;;44.43;25.03;;;;;;;3.24;70.75;101110.60;123138;1105;104252;-82
2022/02/24 02:11:02;;;;;;;38.97;22.00;;;;;;;3.21;71.13;101112.97;124944;1105;104268;-82
2022/02/24 02:13:38;;;;;;;39.00;23.30;;;;;;;3.18;70.68;101111.81;125292;1105;104236;-80
2022/02/24 02:16:10;;;;;;;36.90;21.47;;;;;;;3.15;70.41;101106.42;125360;1105;104300;-80
2022/02/24 02:18:43;;;;;;;33.08;18.05;;;;;;;3.13;70.67;101108.91;124618;1105;104189;-80
2022/02/24 02:21:15;;;;;;;31.80;16.10;;;;;;;3.15;70.42;101122.88;125121;1105;102269;-81
2022/02/24 02:23:46;;;;;;;28.47;14.47;;;;;;;3.12;70.89;101122.64;123251;1105;104229;-83
2022/02/24 02:26:17;;;;;;;27.47;14.10;;;;;;;3.12;70.46;101127.83;122683;1105;105634;-84
2022/02/24 02:28:49;;;;;;;29.90;15.40;;;;;;;3.10;70.28;101128.49;122694;1105;104370;-84
2022/02/24 02:31:23;;;;;;;35.30;15.47;;;;;;;3.04;70.91;101129.84;122707;1105;104327;-84
2022/02/24 02:34:03;;;;;;;27.90;14.40;;;;;;;3.03;70.87;101142.69;122674;1105;104299;-83
2022/02/24 02:36:35;;;;;;;29.17;13.53;;;;;;;2.98;70.47;101139.75;122778;1105;104331;-83
2022/02/24 02:39:08;;;;;;;23.33;12.17;;;;;;;2.95;71.19;101139.52;122767;1105;104361;-82
2022/02/24 02:41:42;;;;;;;25.85;11.45;;;;;;;2.93;70.65;101150.54;122718;1106;104288;-83
2022/02/24 02:44:15;;;;;;;25.90;11.60;;;;;;;2.91;70.47;101154.72;122704;1105;104347;-82
2022/02/24 02:46:47;;;;;;;24.37;10.50;;;;;;;2.87;71.02;101146.70;122717;1105;104290;-83
2022/02/24 02:49:18;;;;;;;26.73;10.47;;;;;;;2.86;71.42;101159.55;122768;1105;104364;-83
2022/02/24 02:51:52;;;;;;;22.50;9.40;;;;;;;2.83;71.54;101160.20;122705;1105;104278;-84
2022/02/24 02:54:23;;;;;;;26.77;10.08;;;;;;;2.79;71.60;101158.18;122731;1105;104367;-82
2022/02/24 02:56:54;;;;;;;24.37;9.63;;;;;;;2.77;71.12;101157.13;122742;1105;104440;-83
2022/02/24 02:59:26;;;;;;;19.77;8.63;;;;;;;2.75;71.93;101163.00;122739;1105;104366;-83
2022/02/24 03:01:57;;;;;;;23.50;9.83;;;;;;;2.73;72.28;101160.30;122690;1105;104236;-83
2022/02/24 03:04:29;;;;;;;21.80;9.13;;;;;;;2.70;71.60;101157.47;122632;1105;104358;-83
2022/02/24 03:07:00;;;;;;;19.77;8.27;;;;;;;2.69;71.42;101160.83;122712;1105;104480;-83
2022/02/24 03:09:34;;;;;;;22.47;8.40;;;;;;;2.68;70.73;101167.71;122690;1105;104364;-83
2022/02/24 03:12:07;;;;;;;20.53;8.90;;;;;;;2.67;71.63;101171.08;122683;1105;104284;-83
2022/02/24 03:14:38;;;;;;;21.85;8.95;;;;;;;2.65;70.83;101175.24;122684;1105;104303;-85
2022/02/24 03:17:10;;;;;;;22.13;8.77;;;;;;;2.64;71.39;101167.35;122678;1105;104367;-83
2022/02/24 03:19:41;;;;;;;22.73;8.53;;;;;;;2.63;71.38;101170.72;122700;1105;104665;-83
2022/02/24 03:22:14;;;;;;;17.47;8.17;;;;;;;2.61;71.05;101170.59;122695;1105;104437;-83
2022/02/24 03:24:45;;;;;;;26.83;8.87;;;;;;;2.61;71.41;101178.37;122696;1105;104316;-82
2022/02/24 03:27:17;;;;;;;22.70;8.47;;;;;;;2.59;71.30;101173.88;122796;1105;104459;-82
2022/02/24 03:29:48;;;;;;;20.33;8.87;;;;;;;2.58;71.42;101182.41;122692;1105;104344;-83
2022/02/24 03:32:20;;;;;;;20.10;8.23;;;;;;;2.57;71.51;101185.78;122753;1105;104393;-83
2022/02/24 03:34:52;;;;;;;21.70;8.50;;;;;;;2.56;71.48;101187.48;122751;1105;104254;-83
2022/02/24 03:37:23;;;;;;;20.25;8.75;;;;;;;2.55;71.66;101188.25;122672;1105;104338;-83
2022/02/24 03:39:54;;;;;;;22.43;8.63;;;;;;;2.55;71.84;101200.31;122662;1105;104419;-81
2022/02/24 03:42:26;;;;;;;21.27;8.57;;;;;;;2.52;71.83;101193.19;122685;1105;104278;-83
2022/02/24 03:44:57;;;;;;;21.80;8.87;;;;;;;2.49;71.55;101201.64;122715;1105;104264;-82
2022/02/24 03:47:29;;;;;;;24.13;8.97;;;;;;;2.48;72.33;101191.16;122778;1105;104396;-83
2022/02/24 03:50:00;;;;;;;20.07;7.97;;;;;;;2.45;72.57;101202.17;122705;1106;104700;-83
2022/02/24 03:52:32;;;;;;;21.17;8.63;;;;;;;2.42;72.22;101204.52;122704;1103;104396;-84
2022/02/24 03:55:03;;;;;;;19.80;8.20;;;;;;;2.39;72.04;101201.69;122696;1105;104405;-83
2022/02/24 03:57:35;;;;;;;21.47;8.13;;;;;;;2.39;72.20;101208.56;122729;1105;104345;-83
2022/02/24 04:00:09;;;;;;;21.90;8.20;;;;;;;2.35;71.21;101209.98;122721;1105;104319;-82
2022/02/24 04:02:44;;;;;;;20.83;9.03;;;;;;;2.34;71.98;101214.27;122747;1105;104371;-82
2022/02/24 04:05:16;;;;;;;23.47;9.30;;;;;;;2.32;72.79;101222.69;122800;1105;104261;-81
2022/02/24 04:07:47;;;;;;;24.03;8.50;;;;;;;2.30;72.34;101226.84;122782;1105;104351;-82
2022/02/24 04:10:18;;;;;;;20.83;7.90;;;;;;;2.26;72.65;101237.73;122819;1105;104409;-83
2022/02/24 04:12:50;;;;;;;22.77;8.53;;;;;;;2.24;72.44;101236.71;122747;1105;104386;-83
2022/02/24 04:15:21;;;;;;;24.73;9.00;;;;;;;2.21;71.92;101239.95;122660;1105;104293;-83
2022/02/24 04:17:53;;;;;;;23.80;8.33;;;;;;;2.22;72.15;101235.70;122739;1105;104284;-83
2022/02/24 04:20:24;;;;;;;20.07;8.47;;;;;;;2.22;72.42;101241.77;122706;1105;104286;-83
2022/02/24 04:22:55;;;;;;;24.13;9.53;;;;;;;2.22;72.36;101238.28;122771;1105;104299;-83
2022/02/24 04:25:27;;;;;;;21.17;8.50;;;;;;;2.16;72.36;101239.58;122703;1105;104747;-82
2022/02/24 04:27:58;;;;;;;22.30;8.40;;;;;;;2.14;72.32;101237.66;122690;1105;104315;-82
2022/02/24 04:30:29;;;;;;;22.10;8.80;;;;;;;2.12;72.13;101244.38;122764;1105;104364;-82
2022/02/24 04:33:01;;;;;;;22.47;8.57;;;;;;;2.09;73.05;101237.29;122787;1105;104344;-82
2022/02/24 04:35:32;;;;;;;18.97;8.00;;;;;;;2.07;72.94;101245.70;122751;1105;104737;-81
2022/02/24 04:38:04;;;;;;;23.70;8.35;;;;;;;2.03;72.46;101252.31;122702;1105;104495;-83
2022/02/24 04:40:35;;;;;;;20.30;8.07;;;;;;;2.01;72.62;101253.89;122697;1105;104383;-81
2022/02/24 04:43:07;;;;;;;22.20;8.93;;;;;;;2.03;72.29;101254.91;122784;1105;104211;-82
2022/02/24 04:45:38;;;;;;;22.03;8.13;;;;;;;2.03;72.16;101265.27;122734;1105;104286;-83
2022/02/24 04:48:11;;;;;;;20.63;8.57;;;;;;;2.03;72.71;101265.27;122725;1105;104402;-83
2022/02/24 04:50:43;;;;;;;20.57;8.87;;;;;;;2.02;72.59;101268.63;122688;1105;104363;-83
2022/02/24 04:53:15;;;;;;;24.03;9.07;;;;;;;2.03;71.95;101266.96;122686;1105;104248;-82
2022/02/24 04:55:48;;;;;;;24.47;8.97;;;;;;;2.05;72.72;101271.46;122732;1105;104258;-82
2022/02/24 04:58:20;;;;;;;22.53;7.97;;;;;;;2.04;72.71;101269.67;122753;1104;104286;-83
2022/02/24 05:00:53;;;;;;;23.77;8.27;;;;;;;2.04;72.55;101268.75;122742;1105;104288;-83
2022/02/24 05:03:25;;;;;;;21.20;8.47;;;;;;;2.04;72.18;101280.03;122835;1104;104373;-82
2022/02/24 05:05:56;;;;;;;23.03;8.80;;;;;;;2.04;72.52;101277.44;122754;1105;104320;-82
2022/02/24 05:08:28;;;;;;;23.13;9.07;;;;;;;2.05;72.25;101288.69;122869;1105;104281;-82
2022/02/24 05:10:59;;;;;;;21.17;8.43;;;;;;;2.02;72.38;101286.74;122743;1105;104363;-82
2022/02/24 05:13:31;;;;;;;26.00;9.63;;;;;;;2.01;72.62;101289.20;122817;1106;104248;-83
2022/02/24 05:16:03;;;;;;;25.30;10.47;;;;;;;1.98;72.49;101293.36;122871;1105;104399;-84
2022/02/24 05:18:34;;;;;;;26.43;12.17;;;;;;;1.99;72.72;101299.43;123051;1105;104251;-82
2022/02/24 05:21:06;;;;;;;24.50;11.60;;;;;;;1.98;72.99;101295.95;123081;1103;104361;-83
2022/02/24 05:23:37;;;;;;;27.07;11.47;;;;;;;2.00;72.98;101298.66;123054;1105;104289;-82
2022/02/24 05:26:09;;;;;;;24.47;10.70;;;;;;;2.03;73.70;101298.02;122769;1105;104364;-83
2022/02/24 05:28:41;;;;;;;29.57;11.93;;;;;;;2.04;73.32;101305.92;123113;1105;104408;-82
2022/02/24 05:31:12;;;;;;;27.33;11.33;;;;;;;2.08;72.76;101307.06;122910;1104;104322;-82
2022/02/24 05:33:44;;;;;;;22.47;10.93;;;;;;;2.09;73.11;101320.14;122864;1105;104427;-83
2022/02/24 05:36:15;;;;;;;26.23;10.30;;;;;;;2.13;72.78;101308.34;122894;1105;104424;-82
2022/02/24 05:38:47;;;;;;;26.33;10.10;;;;;;;2.17;73.05;101310.41;123320;1105;104239;-82
2022/02/24 05:41:18;;;;;;;24.30;10.60;;;;;;;2.19;73.32;101306.25;123488;1105;104392;-82
2022/02/24 05:43:51;;;;;;;27.33;10.20;;;;;;;2.26;73.60;101312.83;123178;1103;104319;-83
2022/02/24 05:46:23;;;;;;;22.33;9.70;;;;;;;2.30;73.19;101315.80;123128;1104;104676;-83
2022/02/24 05:48:57;;;;;;;23.20;8.90;;;;;;;2.32;73.06;101309.08;122945;1105;104306;-83
2022/02/24 05:51:29;;;;;;;24.10;9.50;;;;;;;2.34;73.20;101320.47;122851;1105;104392;-83
2022/02/24 05:54:00;;;;;;;24.63;9.63;;;;;;;2.36;73.49;101322.28;122803;1105;104401;-82
2022/02/24 05:56:32;;;;;;;26.00;10.20;;;;;;;2.35;73.34;101318.77;122992;1105;104376;-82
2022/02/24 05:59:03;;;;;;;25.47;9.40;;;;;;;2.37;73.10;101317.23;122901;1105;104361;-83
2022/02/24 06:01:35;;;;;;;25.03;9.43;;;;;;;2.37;72.82;101319.82;122795;1105;104236;-82
2022/02/24 06:04:07;;;;;;;23.23;9.13;;;;;;;2.40;73.59;101313.96;122813;1105;104185;-81
2022/02/24 06:06:39;;;;;;;23.47;9.60;;;;;;;2.40;73.68;101317.48;123100;1105;104370;-81
2022/02/24 06:09:11;;;;;;;21.33;9.03;;;;;;;2.43;73.52;101322.91;123117;1105;104492;-80
2022/02/24 06:11:44;;;;;;;23.63;9.47;;;;;;;2.45;73.76;101323.93;123152;1105;104261;-81
2022/02/24 06:14:16;;;;;;;22.63;9.20;;;;;;;2.47;73.40;101324.95;123129;1105;104357;-81
2022/02/24 06:16:48;;;;;;;22.50;9.33;;;;;;;2.50;73.63;101321.71;123512;1104;104261;-81
2022/02/24 06:19:19;;;;;;;20.77;9.50;;;;;;;2.54;73.35;101330.62;123329;1105;104370;-80
2022/02/24 06:21:52;;;;;;;23.77;9.20;;;;;;;2.56;73.41;101329.98;123661;1103;104290;-82
2022/02/24 06:24:24;;;;;;;24.53;9.23;;;;;;;2.60;74.58;101338.90;123797;1105;104610;-82
2022/02/24 06:26:57;;;;;;;24.73;8.13;;;;;;;2.62;74.00;101327.89;123663;1105;104284;-82
2022/02/24 06:29:30;;;;;;;24.50;9.87;;;;;;;2.67;73.81;101333.45;123322;1105;104363;-81
2022/02/24 06:32:06;;;;;;;24.87;10.47;;;;;;;2.72;74.07;101332.12;123331;1105;104409;-81
2022/02/24 06:34:41;;;;;;;23.27;9.63;;;;;;;2.79;73.80;101346.47;123275;1105;104360;-81
2022/02/24 06:37:23;;;;;;;26.13;9.73;;;;;;;2.84;74.86;101347.77;123873;1105;104274;-80
2022/02/24 06:40:02;;;;;;;25.60;9.30;;;;;;;2.86;73.59;101347.08;123374;1105;104347;-82
2022/02/24 06:42:37;;;;;;;26.67;9.17;;;;;;;2.94;74.28;101349.39;123672;1105;104363;-79
2022/02/24 06:45:14;;;;;;;26.35;9.65;;;;;;;3.01;73.86;101362.08;123138;1105;104255;-80
2022/02/24 06:47:48;;;;;;;27.17;10.40;;;;;;;3.10;73.64;101354.10;123398;1105;104386;-82
2022/02/24 06:50:31;;;;;;;21.55;9.38;;;;;;;3.17;74.40;101362.49;123681;1105;104315;-83
2022/02/24 06:53:13;;;;;;;29.20;9.40;;;;;;;3.30;73.89;101366.05;123718;1105;104368;-83
2022/02/24 06:56:14;;;;;;;23.97;9.47;;;;;;;3.39;74.24;101367.67;123611;1105;104363;-82
2022/02/24 06:58:47;;;;;;;27.50;9.40;;;;;;;3.50;74.45;101373.70;123388;1105;104392;-84
2022/02/24 07:01:20;;;;;;;;;;;;;;;3.58;74.74;101370.04;123603;1105;104437;-83
2022/02/24 07:04:04;;;;;;;27.47;8.87;;;;;;;3.66;74.44;101369.70;123987;1105;104702;-81
2022/02/24 07:10:14;;;;;;;22.30;8.30;;;;;;;3.85;74.19;101372.02;123693;1105;104268;-80
2022/02/24 07:13:08;;;;;;;22.13;9.47;;;;;;;3.94;74.33;101373.65;124105;1105;104405;-80
2022/02/24 07:15:47;;;;;;;23.60;8.90;;;;;;;4.04;73.49;101371.75;123880;1105;104311;-80
2022/02/24 07:18:24;;;;;;;24.30;9.50;;;;;;;4.10;73.98;101370.52;123534;1106;104495;-83
2022/02/24 07:21:04;;;;;;;19.23;7.90;;;;;;;4.28;74.01;101378.77;123599;1105;104428;-81
2022/02/24 07:23:47;;;;;;;20.97;8.07;;;;;;;4.36;74.13;101376.74;124193;1105;104259;-82
2022/02/24 07:26:31;;;;;;;22.27;9.47;;;;;;;4.45;74.20;101376.53;123842;1106;104376;-80
2022/02/24 07:29:06;;;;;;;23.97;8.87;;;;;;;4.55;74.00;101386.84;123549;1105;104430;-82
2022/02/24 07:31:53;;;;;;;21.77;8.47;;;;;;;4.64;73.74;101387.52;123720;1105;104492;-81
2022/02/24 07:34:29;;;;;;;22.60;8.78;;;;;;;4.72;73.76;101389.76;124296;1105;104441;-81
2022/02/24 07:37:09;;;;;;;22.47;8.60;;;;;;;4.82;73.78;101389.66;124117;1105;102971;-81
2022/02/24 07:40:11;;;;;;;29.50;9.77;;;;;;;4.93;73.44;101390.44;124179;1105;104395;-82
2022/02/24 07:43:28;;;;;;;;;;;;;;;;;;;;;
2022/02/24 07:46:15;;;;;;;;;;;;;;;5.26;73.61;101389.34;124154;1103;104380;-82
2022/02/24 07:48:53;;;;;;;21.27;8.37;;;;;;;5.36;73.66;101402.22;124572;1106;104230;-81
2022/02/24 07:51:48;;;;;;;20.10;8.13;;;;;;;5.40;73.07;101401.62;123993;1105;104242;-82
2022/02/24 07:54:32;;;;;;;23.97;7.80;;;;;;;5.46;73.09;101400.27;123683;1105;104333;-80
2022/02/24 07:57:08;;;;;;;19.63;7.93;;;;;;;5.51;73.20;101412.80;123622;1106;104373;-81
2022/02/24 07:59:46;;;;;;;21.13;8.03;;;;;;;5.56;72.75;101401.03;123397;1105;104742;-83
2022/02/24 08:02:24;;;;;;;19.17;7.80;;;;;;;5.62;72.29;101404.84;123693;1106;104361;-82
2022/02/24 08:08:20;;;;;;;18.43;8.10;;;;;;;5.61;72.51;101414.38;123880;1109;104472;-80
2022/02/24 08:11:07;;;;;;;20.90;7.53;;;;;;;5.63;72.29;101402.35;123484;1105;104488;-80
2022/02/24 08:13:43;;;;;;;22.05;9.50;;;;;;;5.65;72.72;101399.86;123108;1106;104437;-81
2022/02/24 08:16:21;;;;;;;21.57;8.27;;;;;;;5.69;72.39;101394.97;123142;1105;104514;-81
2022/02/24 08:18:59;;;;;;;24.00;8.23;;;;;;;5.73;72.31;101402.21;123253;1105;104434;-83
2022/02/24 08:21:34;;;;;;;25.90;8.20;;;;;;;5.90;72.46;101399.84;123362;1105;104495;-80
2022/02/24 08:24:14;;;;;;;16.93;8.00;;;;;;;5.97;72.28;101398.59;123131;1109;108342;-81
2022/02/24 08:26:58;;;;;;;21.37;7.97;;;;;;;6.00;72.30;101404.94;123217;1109;104397;-81
2022/02/24 08:29:37;;;;;;;24.17;9.47;;;;;;;6.06;72.18;101399.22;122729;1109;104447;-82
2022/02/24 08:32:16;;;;;;;23.47;8.90;;;;;;;6.17;71.87;101406.09;123003;1109;104377;-79
2022/02/24 08:34:55;;;;;;;20.13;8.07;;;;;;;6.29;71.46;101413.82;123396;1111;104496;-80
2022/02/24 08:37:39;;;;;;;21.77;8.47;;;;;;;6.42;71.16;101407.72;123343;1109;104371;-82
2022/02/24 08:40:27;;;;;;;17.67;6.93;;;;;;;6.54;70.69;101413.75;122867;1109;104268;-79
2022/02/24 08:43:04;;;;;;;17.90;6.83;;;;;;;6.55;70.40;101406.86;122978;1109;104828;-80
2022/02/24 08:45:46;;;;;;;17.53;6.30;;;;;;;6.56;70.46;101411.25;123179;1107;104284;-81
2022/02/24 08:48:24;;;;;;;17.63;6.63;;;;;;;6.55;69.95;101409.46;122908;1108;104447;-80
2022/02/24 08:51:02;;;;;;;19.20;5.77;;;;;;;6.46;66.55;101412.34;123037;1105;104338;-81
2022/02/24 08:53:41;;;;;;;17.10;6.60;;;;;;;6.51;67.64;101413.55;123102;1105;104489;-81
2022/02/24 08:56:19;;;;;;;18.80;6.27;;;;;;;6.50;67.90;101421.27;123825;1105;104450;-81
2022/02/24 09:02:22;;;;;;;;;;;;;;;;;;;;;
2022/02/24 09:05:04;;;;;;;16.10;6.20;;;;;;;6.68;67.35;101417.28;123541;1105;108864;-81
2022/02/24 09:07:41;;;;;;;13.47;6.17;;;;;;;6.75;67.79;101406.45;123390;1104;104706;-80
2022/02/24 09:10:21;;;;;;;20.63;6.17;;;;;;;6.84;65.98;101409.67;123886;1105;104284;-80
2022/02/24 09:13:23;;;;;;;13.43;5.67;;;;;;;6.98;65.53;101415.78;123966;1105;104524;-83
2022/02/24 09:18:57;;;;;;;10.83;4.40;;;;;;;7.23;64.29;101419.98;123940;1109;104361;-81
2022/02/24 09:21:38;;;;;;;16.10;4.53;;;;;;;7.33;64.95;101413.63;123850;1109;104383;-83
2022/02/24 09:24:21;;;;;;;11.63;4.20;;;;;;;7.40;65.11;101402.73;124337;1109;103556;-80
2022/02/24 09:26:57;;;;;;;12.07;4.13;;;;;;;7.37;60.15;101421.75;123967;1109;104463;-80
2022/02/24 09:29:39;;;;;;;10.73;3.70;;;;;;;7.42;61.74;101419.43;124137;1109;104398;-81
2022/02/24 09:32:27;;;;;;;;;;;;;;;;;;;;;
2022/02/24 09:35:06;;;;;;;11.17;4.23;;;;;;;7.50;63.76;101410.36;124329;1109;104408;-79
2022/02/24 09:37:41;;;;;;;11.90;4.50;;;;;;;7.51;63.08;101417.40;122649;1111;104399;-81
2022/02/24 09:40:18;;;;;;;12.83;3.93;;;;;;;7.42;62.28;101403.77;122666;1112;104239;-80
2022/02/24 09:42:57;;;;;;;9.47;3.63;;;;;;;7.42;62.63;101414.20;123430;1109;104430;-80
2022/02/24 09:45:30;;;;;;;10.93;4.67;;;;;;;7.47;62.61;101414.50;123426;1108;104420;-82
2022/02/24 09:48:08;;;;;;;8.53;3.75;;;;;;;7.56;62.60;101413.35;123462;1106;104204;-83
2022/02/24 09:50:43;;;;;;;10.50;3.90;;;;;;;7.62;62.66;101412.84;123555;1105;104569;-80
2022/02/24 09:53:16;;;;;;;5.27;3.00;;;;;;;7.56;60.34;101402.91;123507;1105;104434;-80
2022/02/24 09:55:57;;;;;;;9.10;3.97;;;;;;;7.56;61.20;101407.23;123350;1108;104406;-80
2022/02/24 09:58:35;;;;;;;10.30;4.30;;;;;;;7.58;62.08;101395.17;123509;1107;104486;-81
2022/02/24 10:01:12;;;;;;;12.07;4.73;;;;;;;7.60;61.31;101398.77;123615;1105;104766;-81
2022/02/24 10:04:01;;;;;;;8.30;3.73;;;;;;;7.51;59.38;101404.34;123859;1105;104223;-82
2022/02/24 10:06:44;;;;;;;10.43;3.80;;;;;;;7.52;59.62;101406.13;123385;1105;104274;-80
2022/02/24 10:09:29;;;;;;;12.23;3.90;;;;;;;7.50;58.67;101391.19;123704;1105;104311;-80
2022/02/24 10:12:25;;;;;;;11.00;4.10;;;;;;;7.62;59.21;101389.34;123135;1106;104665;-81
2022/02/24 10:15:16;;;;;;;11.37;4.30;;;;;;;7.68;59.51;101386.17;122712;1105;104386;-79
2022/02/24 10:18:13;;;;;;;7.83;3.90;;;;;;;7.74;59.43;101383.94;123191;1105;104367;-79
2022/02/24 10:21:04;;;;;;;11.88;4.35;;;;;;;7.71;58.51;101387.30;124103;1105;104237;-79
2022/02/24 10:23:42;;;;;;;11.67;4.33;;;;;;;7.77;58.57;101380.62;123963;1107;104482;-79
2022/02/24 10:26:18;;;;;;;9.83;4.20;;;;;;;7.82;58.30;101376.58;124006;1105;104316;-79
2022/02/24 10:29:07;;;;;;;10.00;4.53;;;;;;;7.89;59.19;101377.04;123593;1105;104793;-81
2022/02/24 10:31:57;;;;;;;15.63;5.37;;;;;;;7.95;59.48;101371.30;123956;1105;104659;-81
2022/02/24 10:34:36;;;;;;;14.23;4.60;;;;;;;7.97;59.03;101372.28;124117;1105;104227;-82
2022/02/24 10:37:16;;;;;;;13.27;5.20;;;;;;;7.92;57.83;101373.72;124176;1105;118725;-80
2022/02/24 10:40:07;;;;;;;11.30;4.47;;;;;;;7.91;57.80;101374.52;123922;1106;104294;-80
2022/02/24 10:42:43;;;;;;;15.87;4.60;;;;;;;7.93;58.75;101370.28;123703;1105;104201;-80
2022/02/24 10:45:25;;;;;;;10.50;4.60;;;;;;;7.92;57.93;101376.34;123411;1105;104336;-81
2022/02/24 10:48:10;;;;;;;9.45;4.20;;;;;;;7.92;57.28;101376.34;123760;1105;104424;-79
2022/02/24 10:51:12;;;;;;;14.60;5.33;;;;;;;7.93;58.38;101370.28;123328;1105;104254;-83
2022/02/24 10:53:46;;;;;;;12.80;5.30;;;;;;;7.98;58.62;101375.78;123392;1106;104488;-78
2022/02/24 10:56:25;;;;;;;13.37;4.87;;;;;;;7.97;58.19;101368.77;123308;1105;104303;-80
2022/02/24 10:59:19;;;;;;;10.77;3.97;;;;;;;8.00;58.56;101367.23;123622;1105;104363;-82
2022/02/24 11:02:10;;;;;;;11.50;4.20;;;;;;;7.99;56.99;101367.14;123626;1105;104426;-82
2022/02/24 11:04:53;;;;;;;11.73;4.10;;;;;;;7.94;56.20;101360.75;123908;1105;104322;-80
2022/02/24 11:07:28;;;;;;;8.90;3.87;;;;;;;7.96;57.61;101364.34;123750;1105;104271;-80
2022/02/24 11:10:07;;;;;;;7.80;4.10;;;;;;;7.95;57.13;101368.68;123613;1105;104928;-79
2022/02/24 11:12:47;;;;;;;;;;;;;;;7.90;56.10;101362.28;123580;1105;104701;-79
2022/02/24 11:15:34;;;;;;;16.30;5.00;;;;;;;7.89;56.92;101361.36;123291;1105;104456;-80
2022/02/24 11:18:33;;;;;;;12.77;5.00;;;;;;;7.85;56.63;101356.78;123548;1109;118989;-80
2022/02/24 11:21:11;;;;;;;11.73;4.77;;;;;;;7.82;56.76;101358.28;123837;1105;104402;-80
2022/02/24 11:23:58;;;;;;;11.33;4.47;;;;;;;7.80;56.77;101360.80;123524;1105;104213;-80
2022/02/24 11:27:07;;;;;;;14.80;5.13;;;;;;;7.76;57.08;101361.45;123117;1105;104423;-80
2022/02/24 11:29:51;;;;;;;8.75;4.40;;;;;;;7.71;56.76;101361.16;123506;1109;104928;-81
2022/02/24 11:32:27;;;;;;;13.43;4.97;;;;;;;7.67;57.30;101353.94;123741;1108;104778;-81
2022/02/24 11:35:28;;;;;;;12.53;4.50;;;;;;;7.68;57.42;101352.22;124137;1109;104325;-82
2022/02/24 11:38:17;;;;;;;13.03;5.70;;;;;;;7.71;57.15;101349.80;123600;1109;104850;-81
2022/02/24 11:41:06;;;;;;;13.60;4.93;;;;;;;7.69;57.06;101340.97;123702;1109;104302;-82
2022/02/24 11:43:57;;;;;;;18.07;5.53;;;;;;;7.73;57.68;101353.42;123781;1109;104278;-82
2022/02/24 11:46:30;;;;;;;11.93;4.67;;;;;;;7.74;56.67;101360.42;123755;1108;104294;-81
2022/02/24 11:49:07;;;;;;;12.27;4.97;;;;;;;7.74;57.29;101357.81;123484;1105;104358;-82
2022/02/24 11:51:43;;;;;;;12.90;4.70;;;;;;;7.69;57.27;101349.70;122964;1106;104322;-82
2022/02/24 11:54:42;;;;;;;12.93;4.93;;;;;;;7.73;57.00;101346.47;123318;1105;104444;-80
2022/02/24 11:57:31;;;;;;;10.23;4.67;;;;;;;7.75;57.38;101351.80;123264;1105;104517;-81
2022/02/24 12:00:19;;;;;;;10.97;4.70;;;;;;;7.81;57.54;101346.05;123483;1105;104407;-80
2022/02/24 12:02:54;;;;;;;12.50;4.70;;;;;;;7.81;56.98;101362.62;123345;1106;104265;-79
2022/02/24 12:05:41;;;;;;;9.97;4.53;;;;;;;7.84;57.37;101349.73;123984;1105;104249;-80
2022/02/24 12:08:37;;;;;;;17.03;5.37;;;;;;;7.90;57.07;101350.11;123733;1105;104283;-81